LEBA/ODB METAR and TAF weather

Enter ICAO airport designator
Station Type Date Time Source
LEBA METAR 2022/08/13 12:00 UTC NOAA

LEBA 131200Z 01013KT 330V060 8000 TSRA FEW010CB SCT035 29/19 Q1014


Station Type Date Time Source
LEBA Decoded METAR 2022/08/13 12:00 UTC NOAA

Cordoba / Aeropuerto, Spain (LEBA) 37-51N 004-51W 92M
Aug 13, 2022 - 08:00 AM EDT / 2022.08.13 1200 UTC
Wind: from the N (010 degrees) at 15 MPH (13 KT) (direction variable):0
Visibility: 4 mile(s):0
Sky conditions: partly cloudy
Weather: rain with thunder; Cumulonimbus clouds observed
Temperature: 84 F (29 C)
Dew Point: 66 F (19 C)
Relative Humidity: 54%
Pressure (altimeter): 29.94 in. Hg (1014 hPa)
ob: LEBA 131200Z 01013KT 330V060 8000 TSRA FEW010CB SCT035 29/19 Q1014
cycle: 12

Station Type Date Time Source
LEBA TAF 2022/08/13 09:27 UTC NOAA

TAF TAF LEBA 130800Z 1309/1409 03006KT 9999 SCT045 TX38/1316Z TN21/1405Z PROB40
TEMPO 1309/1315 VRB15G25KT 3000 TSRA SCT040 SCT050CB

Example: see airport list